sensor_id;sensor_type;location;lat;lon;timestamp;P1;durP1;ratioP1;P2;durP2;ratioP2
15915;SDS011;8057;47.830;-3.870;2022-08-07T00:00:15;3.10;;;1.87;;
15915;SDS011;8057;47.830;-3.870;2022-08-07T00:04:25;4.67;;;2.03;;
15915;SDS011;8057;47.830;-3.870;2022-08-07T00:08:36;2.87;;;1.60;;
15915;SDS011;8057;47.830;-3.870;2022-08-07T00:12:49;1.83;;;1.70;;
15915;SDS011;8057;47.830;-3.870;2022-08-07T00:17:06;2.53;;;1.80;;
15915;SDS011;8057;47.830;-3.870;2022-08-07T00:21:15;2.77;;;1.50;;
15915;SDS011;8057;47.830;-3.870;2022-08-07T00:25:45;4.80;;;2.00;;
15915;SDS011;8057;47.830;-3.870;2022-08-07T00:30:06;3.63;;;1.90;;
15915;SDS011;8057;47.830;-3.870;2022-08-07T00:34:33;2.60;;;1.47;;
15915;SDS011;8057;47.830;-3.870;2022-08-07T00:38:41;2.70;;;1.63;;
15915;SDS011;8057;47.830;-3.870;2022-08-07T00:42:52;2.47;;;1.40;;
15915;SDS011;8057;47.830;-3.870;2022-08-07T00:47:02;2.80;;;1.97;;
15915;SDS011;8057;47.830;-3.870;2022-08-07T00:51:31;3.40;;;1.90;;
15915;SDS011;8057;47.830;-3.870;2022-08-07T00:56:00;1.80;;;1.53;;
15915;SDS011;8057;47.830;-3.870;2022-08-07T01:00:20;2.17;;;1.90;;
15915;SDS011;8057;47.830;-3.870;2022-08-07T01:04:29;2.23;;;1.67;;
15915;SDS011;8057;47.830;-3.870;2022-08-07T01:08:48;3.63;;;1.60;;
15915;SDS011;8057;47.830;-3.870;2022-08-07T01:13:00;3.63;;;1.80;;
15915;SDS011;8057;47.830;-3.870;2022-08-07T01:17:11;3.53;;;1.60;;
15915;SDS011;8057;47.830;-3.870;2022-08-07T01:21:21;2.63;;;1.40;;
15915;SDS011;8057;47.830;-3.870;2022-08-07T01:25:33;3.07;;;1.57;;
15915;SDS011;8057;47.830;-3.870;2022-08-07T01:30:01;4.40;;;1.70;;
15915;SDS011;8057;47.830;-3.870;2022-08-07T01:34:10;1.97;;;1.27;;
15915;SDS011;8057;47.830;-3.870;2022-08-07T01:38:22;3.03;;;1.67;;
15915;SDS011;8057;47.830;-3.870;2022-08-07T01:42:34;2.07;;;1.40;;
15915;SDS011;8057;47.830;-3.870;2022-08-07T01:47:03;3.40;;;2.00;;
15915;SDS011;8057;47.830;-3.870;2022-08-07T01:51:32;1.53;;;1.40;;
15915;SDS011;8057;47.830;-3.870;2022-08-07T01:56:06;1.80;;;1.23;;
15915;SDS011;8057;47.830;-3.870;2022-08-07T02:00:18;3.43;;;1.50;;
15915;SDS011;8057;47.830;-3.870;2022-08-07T02:04:36;2.00;;;1.40;;
15915;SDS011;8057;47.830;-3.870;2022-08-07T02:09:03;5.83;;;1.23;;
15915;SDS011;8057;47.830;-3.870;2022-08-07T02:13:18;2.17;;;1.20;;
15915;SDS011;8057;47.830;-3.870;2022-08-07T02:17:48;3.00;;;1.13;;
15915;SDS011;8057;47.830;-3.870;2022-08-07T02:22:02;3.90;;;1.27;;
15915;SDS011;8057;47.830;-3.870;2022-08-07T02:26:13;2.20;;;1.43;;
15915;SDS011;8057;47.830;-3.870;2022-08-07T02:30:41;2.83;;;1.43;;
15915;SDS011;8057;47.830;-3.870;2022-08-07T02:34:53;3.27;;;1.40;;
15915;SDS011;8057;47.830;-3.870;2022-08-07T02:39:06;3.10;;;1.20;;
15915;SDS011;8057;47.830;-3.870;2022-08-07T02:43:37;5.90;;;1.40;;
15915;SDS011;8057;47.830;-3.870;2022-08-07T02:47:55;2.50;;;1.20;;
15915;SDS011;8057;47.830;-3.870;2022-08-07T02:52:07;2.90;;;1.33;;
15915;SDS011;8057;47.830;-3.870;2022-08-07T02:56:20;2.07;;;1.07;;
15915;SDS011;8057;47.830;-3.870;2022-08-07T03:00:37;2.20;;;1.10;;
15915;SDS011;8057;47.830;-3.870;2022-08-07T03:04:54;2.53;;;1.10;;
15915;SDS011;8057;47.830;-3.870;2022-08-07T03:09:10;2.97;;;0.83;;
15915;SDS011;8057;47.830;-3.870;2022-08-07T03:13:19;2.10;;;1.20;;
15915;SDS011;8057;47.830;-3.870;2022-08-07T03:17:28;3.37;;;1.20;;
15915;SDS011;8057;47.830;-3.870;2022-08-07T03:21:59;2.10;;;1.40;;
15915;SDS011;8057;47.830;-3.870;2022-08-07T03:26:09;2.53;;;1.30;;
15915;SDS011;8057;47.830;-3.870;2022-08-07T03:30:29;2.57;;;1.47;;
15915;SDS011;8057;47.830;-3.870;2022-08-07T03:34:39;3.17;;;1.30;;
15915;SDS011;8057;47.830;-3.870;2022-08-07T03:39:08;6.63;;;1.53;;
15915;SDS011;8057;47.830;-3.870;2022-08-07T03:43:22;1.90;;;1.10;;
15915;SDS011;8057;47.830;-3.870;2022-08-07T03:47:36;3.77;;;1.40;;
15915;SDS011;8057;47.830;-3.870;2022-08-07T03:51:57;1.50;;;1.27;;
15915;SDS011;8057;47.830;-3.870;2022-08-07T03:56:09;2.13;;;1.33;;
15915;SDS011;8057;47.830;-3.870;2022-08-07T04:00:19;2.00;;;1.40;;
15915;SDS011;8057;47.830;-3.870;2022-08-07T04:04:36;1.80;;;1.20;;
15915;SDS011;8057;47.830;-3.870;2022-08-07T04:08:45;2.87;;;1.50;;
15915;SDS011;8057;47.830;-3.870;2022-08-07T04:12:55;2.37;;;1.37;;
15915;SDS011;8057;47.830;-3.870;2022-08-07T04:17:04;1.83;;;1.30;;
15915;SDS011;8057;47.830;-3.870;2022-08-07T04:21:26;3.93;;;1.50;;
15915;SDS011;8057;47.830;-3.870;2022-08-07T04:25:39;2.07;;;1.50;;
15915;SDS011;8057;47.830;-3.870;2022-08-07T04:29:50;6.10;;;1.30;;
15915;SDS011;8057;47.830;-3.870;2022-08-07T04:34:08;1.33;;;1.23;;
15915;SDS011;8057;47.830;-3.870;2022-08-07T04:38:23;4.13;;;1.50;;
15915;SDS011;8057;47.830;-3.870;2022-08-07T04:42:32;3.73;;;1.60;;
15915;SDS011;8057;47.830;-3.870;2022-08-07T04:46:43;2.50;;;1.60;;
15915;SDS011;8057;47.830;-3.870;2022-08-07T04:51:15;3.13;;;1.27;;
15915;SDS011;8057;47.830;-3.870;2022-08-07T04:55:34;1.50;;;1.30;;
15915;SDS011;8057;47.830;-3.870;2022-08-07T05:00:08;3.20;;;1.40;;
15915;SDS011;8057;47.830;-3.870;2022-08-07T05:04:30;4.83;;;1.53;;
15915;SDS011;8057;47.830;-3.870;2022-08-07T05:08:57;5.47;;;1.40;;
15915;SDS011;8057;47.830;-3.870;2022-08-07T05:13:13;3.50;;;1.60;;
15915;SDS011;8057;47.830;-3.870;2022-08-07T05:17:45;4.17;;;1.90;;
15915;SDS011;8057;47.830;-3.870;2022-08-07T05:22:08;4.10;;;1.90;;
15915;SDS011;8057;47.830;-3.870;2022-08-07T05:26:32;3.67;;;1.87;;
15915;SDS011;8057;47.830;-3.870;2022-08-07T05:30:43;2.93;;;1.57;;
15915;SDS011;8057;47.830;-3.870;2022-08-07T05:34:53;4.30;;;1.97;;
15915;SDS011;8057;47.830;-3.870;2022-08-07T05:39:05;2.17;;;1.57;;
15915;SDS011;8057;47.830;-3.870;2022-08-07T05:43:34;3.37;;;1.70;;
15915;SDS011;8057;47.830;-3.870;2022-08-07T05:48:04;2.93;;;1.77;;
15915;SDS011;8057;47.830;-3.870;2022-08-07T05:52:16;2.57;;;1.60;;
15915;SDS011;8057;47.830;-3.870;2022-08-07T05:56:27;4.37;;;2.23;;
15915;SDS011;8057;47.830;-3.870;2022-08-07T06:00:38;4.23;;;2.10;;
15915;SDS011;8057;47.830;-3.870;2022-08-07T06:04:56;3.23;;;1.80;;
15915;SDS011;8057;47.830;-3.870;2022-08-07T06:09:09;2.93;;;1.80;;
15915;SDS011;8057;47.830;-3.870;2022-08-07T06:13:20;4.93;;;2.10;;
15915;SDS011;8057;47.830;-3.870;2022-08-07T06:17:49;3.97;;;2.00;;
15915;SDS011;8057;47.830;-3.870;2022-08-07T06:22:01;4.90;;;1.70;;
15915;SDS011;8057;47.830;-3.870;2022-08-07T06:26:29;4.43;;;1.83;;
15915;SDS011;8057;47.830;-3.870;2022-08-07T06:30:40;4.87;;;2.00;;
15915;SDS011;8057;47.830;-3.870;2022-08-07T06:34:58;3.30;;;2.13;;
15915;SDS011;8057;47.830;-3.870;2022-08-07T06:39:16;2.53;;;1.87;;
15915;SDS011;8057;47.830;-3.870;2022-08-07T06:43:45;2.13;;;1.67;;
15915;SDS011;8057;47.830;-3.870;2022-08-07T06:48:13;2.67;;;1.80;;
15915;SDS011;8057;47.830;-3.870;2022-08-07T06:52:32;2.53;;;1.67;;
15915;SDS011;8057;47.830;-3.870;2022-08-07T06:56:43;4.83;;;2.03;;
15915;SDS011;8057;47.830;-3.870;2022-08-07T07:00:56;4.73;;;2.20;;
15915;SDS011;8057;47.830;-3.870;2022-08-07T07:05:09;3.87;;;2.00;;
15915;SDS011;8057;47.830;-3.870;2022-08-07T07:09:43;3.70;;;2.80;;
15915;SDS011;8057;47.830;-3.870;2022-08-07T07:13:53;2.53;;;1.70;;
15915;SDS011;8057;47.830;-3.870;2022-08-07T07:18:09;2.67;;;2.13;;
15915;SDS011;8057;47.830;-3.870;2022-08-07T07:22:43;2.97;;;1.73;;
15915;SDS011;8057;47.830;-3.870;2022-08-07T07:27:13;2.73;;;1.90;;
15915;SDS011;8057;47.830;-3.870;2022-08-07T07:31:26;3.60;;;1.80;;
15915;SDS011;8057;47.830;-3.870;2022-08-07T07:35:50;4.27;;;1.90;;
15915;SDS011;8057;47.830;-3.870;2022-08-07T07:40:21;2.97;;;1.80;;
15915;SDS011;8057;47.830;-3.870;2022-08-07T07:44:31;3.27;;;2.13;;
15915;SDS011;8057;47.830;-3.870;2022-08-07T07:48:45;2.37;;;1.87;;
15915;SDS011;8057;47.830;-3.870;2022-08-07T07:53:06;2.80;;;1.80;;
15915;SDS011;8057;47.830;-3.870;2022-08-07T07:57:32;1.80;;;1.50;;
15915;SDS011;8057;47.830;-3.870;2022-08-07T08:01:58;3.80;;;2.00;;
15915;SDS011;8057;47.830;-3.870;2022-08-07T08:06:16;3.87;;;1.80;;
15915;SDS011;8057;47.830;-3.870;2022-08-07T08:10:26;2.47;;;1.40;;
15915;SDS011;8057;47.830;-3.870;2022-08-07T08:14:45;2.07;;;1.77;;
15915;SDS011;8057;47.830;-3.870;2022-08-07T08:18:54;3.10;;;1.80;;
15915;SDS011;8057;47.830;-3.870;2022-08-07T08:23:15;2.00;;;1.67;;
15915;SDS011;8057;47.830;-3.870;2022-08-07T08:27:43;2.33;;;1.60;;
15915;SDS011;8057;47.830;-3.870;2022-08-07T08:32:09;2.07;;;1.60;;
15915;SDS011;8057;47.830;-3.870;2022-08-07T08:36:31;1.70;;;1.50;;
15915;SDS011;8057;47.830;-3.870;2022-08-07T08:40:45;3.20;;;1.30;;
15915;SDS011;8057;47.830;-3.870;2022-08-07T08:45:04;1.97;;;1.33;;
15915;SDS011;8057;47.830;-3.870;2022-08-07T08:49:25;2.23;;;1.50;;
15915;SDS011;8057;47.830;-3.870;2022-08-07T08:54:00;2.87;;;1.40;;
15915;SDS011;8057;47.830;-3.870;2022-08-07T08:58:18;2.20;;;1.20;;
15915;SDS011;8057;47.830;-3.870;2022-08-07T09:02:40;3.13;;;1.50;;
15915;SDS011;8057;47.830;-3.870;2022-08-07T09:07:07;3.03;;;1.60;;
15915;SDS011;8057;47.830;-3.870;2022-08-07T09:11:30;2.17;;;1.20;;
15915;SDS011;8057;47.830;-3.870;2022-08-07T09:16:02;3.77;;;1.40;;
15915;SDS011;8057;47.830;-3.870;2022-08-07T09:20:35;2.17;;;1.23;;
15915;SDS011;8057;47.830;-3.870;2022-08-07T09:25:09;1.27;;;1.17;;
15915;SDS011;8057;47.830;-3.870;2022-08-07T09:29:28;2.77;;;1.30;;
15915;SDS011;8057;47.830;-3.870;2022-08-07T09:34:12;2.83;;;1.40;;
15915;SDS011;8057;47.830;-3.870;2022-08-07T09:38:35;2.63;;;1.30;;
15915;SDS011;8057;47.830;-3.870;2022-08-07T09:43:03;3.13;;;1.30;;
15915;SDS011;8057;47.830;-3.870;2022-08-07T09:47:47;2.43;;;1.20;;
15915;SDS011;8057;47.830;-3.870;2022-08-07T09:52:19;4.27;;;1.40;;
15915;SDS011;8057;47.830;-3.870;2022-08-07T10:01:27;2.40;;;1.20;;
15915;SDS011;8057;47.830;-3.870;2022-08-07T10:10:47;2.27;;;1.50;;
15915;SDS011;8057;47.830;-3.870;2022-08-07T10:15:34;1.20;;;1.10;;
15915;SDS011;8057;47.830;-3.870;2022-08-07T10:20:03;2.60;;;1.50;;
15915;SDS011;8057;47.830;-3.870;2022-08-07T10:24:44;2.50;;;1.50;;
15915;SDS011;8057;47.830;-3.870;2022-08-07T10:29:09;2.63;;;1.30;;
15915;SDS011;8057;47.830;-3.870;2022-08-07T10:33:31;1.73;;;1.47;;
15915;SDS011;8057;47.830;-3.870;2022-08-07T10:38:34;1.40;;;1.10;;
15915;SDS011;8057;47.830;-3.870;2022-08-07T10:42:56;2.50;;;1.27;;
15915;SDS011;8057;47.830;-3.870;2022-08-07T10:47:12;1.67;;;1.30;;
15915;SDS011;8057;47.830;-3.870;2022-08-07T10:51:54;1.30;;;1.10;;
15915;SDS011;8057;47.830;-3.870;2022-08-07T10:56:24;2.97;;;1.37;;
15915;SDS011;8057;47.830;-3.870;2022-08-07T11:00:45;1.93;;;1.00;;
15915;SDS011;8057;47.830;-3.870;2022-08-07T11:05:07;1.60;;;1.40;;
15915;SDS011;8057;47.830;-3.870;2022-08-07T11:09:23;1.80;;;1.43;;
15915;SDS011;8057;47.830;-3.870;2022-08-07T11:13:56;1.27;;;1.00;;
15915;SDS011;8057;47.830;-3.870;2022-08-07T11:18:32;4.37;;;1.20;;
15915;SDS011;8057;47.830;-3.870;2022-08-07T11:22:48;2.27;;;1.20;;
15915;SDS011;8057;47.830;-3.870;2022-08-07T11:27:02;1.60;;;1.10;;
15915;SDS011;8057;47.830;-3.870;2022-08-07T11:31:23;1.47;;;1.30;;
15915;SDS011;8057;47.830;-3.870;2022-08-07T11:35:42;2.17;;;1.23;;
15915;SDS011;8057;47.830;-3.870;2022-08-07T11:40:17;1.33;;;1.07;;
15915;SDS011;8057;47.830;-3.870;2022-08-07T11:44:38;2.00;;;1.40;;
15915;SDS011;8057;47.830;-3.870;2022-08-07T11:54:18;1.77;;;1.47;;
15915;SDS011;8057;47.830;-3.870;2022-08-07T11:58:43;3.57;;;1.70;;
15915;SDS011;8057;47.830;-3.870;2022-08-07T12:03:15;2.37;;;1.50;;
15915;SDS011;8057;47.830;-3.870;2022-08-07T12:07:59;1.50;;;1.30;;
15915;SDS011;8057;47.830;-3.870;2022-08-07T12:12:33;1.60;;;1.40;;
15915;SDS011;8057;47.830;-3.870;2022-08-07T12:16:45;1.60;;;1.50;;
15915;SDS011;8057;47.830;-3.870;2022-08-07T12:21:11;1.73;;;1.50;;
15915;SDS011;8057;47.830;-3.870;2022-08-07T12:25:49;3.43;;;1.63;;
15915;SDS011;8057;47.830;-3.870;2022-08-07T12:30:23;2.63;;;1.50;;
15915;SDS011;8057;47.830;-3.870;2022-08-07T12:34:38;2.50;;;1.60;;
15915;SDS011;8057;47.830;-3.870;2022-08-07T12:38:59;2.53;;;1.80;;
15915;SDS011;8057;47.830;-3.870;2022-08-07T12:43:31;2.13;;;2.03;;
15915;SDS011;8057;47.830;-3.870;2022-08-07T12:48:06;4.40;;;2.33;;
15915;SDS011;8057;47.830;-3.870;2022-08-07T12:52:35;2.93;;;2.13;;
15915;SDS011;8057;47.830;-3.870;2022-08-07T12:56:58;2.67;;;2.10;;
15915;SDS011;8057;47.830;-3.870;2022-08-07T13:01:18;2.57;;;2.20;;
15915;SDS011;8057;47.830;-3.870;2022-08-07T13:05:43;3.03;;;2.10;;
15915;SDS011;8057;47.830;-3.870;2022-08-07T13:10:15;2.13;;;1.92;;
15915;SDS011;8057;47.830;-3.870;2022-08-07T13:14:50;2.47;;;2.03;;
15915;SDS011;8057;47.830;-3.870;2022-08-07T13:19:15;2.78;;;2.58;;
15915;SDS011;8057;47.830;-3.870;2022-08-07T13:23:53;4.03;;;2.57;;
15915;SDS011;8057;47.830;-3.870;2022-08-07T13:28:12;2.93;;;2.20;;
15915;SDS011;8057;47.830;-3.870;2022-08-07T13:32:33;2.83;;;2.30;;
15915;SDS011;8057;47.830;-3.870;2022-08-07T13:36:53;2.87;;;2.20;;
15915;SDS011;8057;47.830;-3.870;2022-08-07T13:41:10;2.50;;;2.30;;
15915;SDS011;8057;47.830;-3.870;2022-08-07T13:45:28;2.60;;;2.40;;
15915;SDS011;8057;47.830;-3.870;2022-08-07T13:49:59;2.77;;;1.90;;
15915;SDS011;8057;47.830;-3.870;2022-08-07T13:54:30;1.90;;;1.80;;
15915;SDS011;8057;47.830;-3.870;2022-08-07T13:58:42;2.37;;;2.17;;
15915;SDS011;8057;47.830;-3.870;2022-08-07T14:03:11;2.27;;;2.17;;
15915;SDS011;8057;47.830;-3.870;2022-08-07T14:07:37;2.17;;;2.03;;
15915;SDS011;8057;47.830;-3.870;2022-08-07T14:12:09;2.10;;;1.90;;
15915;SDS011;8057;47.830;-3.870;2022-08-07T14:16:35;2.57;;;1.97;;
15915;SDS011;8057;47.830;-3.870;2022-08-07T14:21:00;2.23;;;2.03;;
15915;SDS011;8057;47.830;-3.870;2022-08-07T14:25:17;2.17;;;1.97;;
15915;SDS011;8057;47.830;-3.870;2022-08-07T14:29:36;4.23;;;2.30;;
15915;SDS011;8057;47.830;-3.870;2022-08-07T14:34:10;1.80;;;1.70;;
15915;SDS011;8057;47.830;-3.870;2022-08-07T14:38:26;2.17;;;1.53;;
15915;SDS011;8057;47.830;-3.870;2022-08-07T14:42:59;1.93;;;1.80;;
15915;SDS011;8057;47.830;-3.870;2022-08-07T14:47:31;1.40;;;1.30;;
15915;SDS011;8057;47.830;-3.870;2022-08-07T14:51:42;2.20;;;1.73;;
15915;SDS011;8057;47.830;-3.870;2022-08-07T14:56:12;2.03;;;1.40;;
15915;SDS011;8057;47.830;-3.870;2022-08-07T15:00:36;1.95;;;1.75;;
15915;SDS011;8057;47.830;-3.870;2022-08-07T15:04:49;2.35;;;1.48;;
15915;SDS011;8057;47.830;-3.870;2022-08-07T15:09:00;1.70;;;1.60;;
15915;SDS011;8057;47.830;-3.870;2022-08-07T15:13:31;1.90;;;1.60;;
15915;SDS011;8057;47.830;-3.870;2022-08-07T15:17:43;1.60;;;1.50;;
15915;SDS011;8057;47.830;-3.870;2022-08-07T15:22:03;1.63;;;1.48;;
15915;SDS011;8057;47.830;-3.870;2022-08-07T15:26:35;1.50;;;1.40;;
15915;SDS011;8057;47.830;-3.870;2022-08-07T15:30:48;3.00;;;1.67;;
15915;SDS011;8057;47.830;-3.870;2022-08-07T15:35:12;1.27;;;1.08;;
15915;SDS011;8057;47.830;-3.870;2022-08-07T15:39:24;1.23;;;1.13;;
15915;SDS011;8057;47.830;-3.870;2022-08-07T15:43:56;2.28;;;1.23;;
15915;SDS011;8057;47.830;-3.870;2022-08-07T15:48:07;2.00;;;1.30;;
15915;SDS011;8057;47.830;-3.870;2022-08-07T15:52:26;2.37;;;0.97;;
15915;SDS011;8057;47.830;-3.870;2022-08-07T15:56:40;1.33;;;1.23;;
15915;SDS011;8057;47.830;-3.870;2022-08-07T16:00:53;2.93;;;1.50;;
15915;SDS011;8057;47.830;-3.870;2022-08-07T16:05:05;1.53;;;1.40;;
15915;SDS011;8057;47.830;-3.870;2022-08-07T16:09:21;2.63;;;1.27;;
15915;SDS011;8057;47.830;-3.870;2022-08-07T16:13:53;2.57;;;1.57;;
15915;SDS011;8057;47.830;-3.870;2022-08-07T16:18:12;1.63;;;1.20;;
15915;SDS011;8057;47.830;-3.870;2022-08-07T16:22:51;1.47;;;1.00;;
15915;SDS011;8057;47.830;-3.870;2022-08-07T16:27:32;1.27;;;1.13;;
15915;SDS011;8057;47.830;-3.870;2022-08-07T16:31:54;2.25;;;1.40;;
15915;SDS011;8057;47.830;-3.870;2022-08-07T16:36:15;1.40;;;1.30;;
15915;SDS011;8057;47.830;-3.870;2022-08-07T16:40:43;2.10;;;1.30;;
15915;SDS011;8057;47.830;-3.870;2022-08-07T16:45:11;2.10;;;1.70;;
15915;SDS011;8057;47.830;-3.870;2022-08-07T16:55:04;1.77;;;1.40;;
15915;SDS011;8057;47.830;-3.870;2022-08-07T16:59:23;1.30;;;1.20;;
15915;SDS011;8057;47.830;-3.870;2022-08-07T17:03:54;3.00;;;1.70;;
15915;SDS011;8057;47.830;-3.870;2022-08-07T17:08:33;2.20;;;1.80;;
15915;SDS011;8057;47.830;-3.870;2022-08-07T17:13:25;1.70;;;1.30;;
15915;SDS011;8057;47.830;-3.870;2022-08-07T17:18:04;2.23;;;1.73;;
15915;SDS011;8057;47.830;-3.870;2022-08-07T17:22:24;1.50;;;1.40;;
15915;SDS011;8057;47.830;-3.870;2022-08-07T17:26:45;1.50;;;1.40;;
15915;SDS011;8057;47.830;-3.870;2022-08-07T17:31:04;1.93;;;1.50;;
15915;SDS011;8057;47.830;-3.870;2022-08-07T17:35:23;2.40;;;1.50;;
15915;SDS011;8057;47.830;-3.870;2022-08-07T17:39:57;3.60;;;1.80;;
15915;SDS011;8057;47.830;-3.870;2022-08-07T17:44:16;2.40;;;1.70;;
15915;SDS011;8057;47.830;-3.870;2022-08-07T17:48:50;3.60;;;1.80;;
15915;SDS011;8057;47.830;-3.870;2022-08-07T17:53:22;2.10;;;1.77;;
15915;SDS011;8057;47.830;-3.870;2022-08-07T17:57:57;3.53;;;1.60;;
15915;SDS011;8057;47.830;-3.870;2022-08-07T18:02:13;4.40;;;2.00;;
15915;SDS011;8057;47.830;-3.870;2022-08-07T18:06:30;2.47;;;1.90;;
15915;SDS011;8057;47.830;-3.870;2022-08-07T18:10:51;3.20;;;1.60;;
15915;SDS011;8057;47.830;-3.870;2022-08-07T18:15:22;2.57;;;1.63;;
15915;SDS011;8057;47.830;-3.870;2022-08-07T18:19:41;3.13;;;1.83;;
15915;SDS011;8057;47.830;-3.870;2022-08-07T18:24:13;2.13;;;1.93;;
15915;SDS011;8057;47.830;-3.870;2022-08-07T18:28:44;2.40;;;1.90;;
15915;SDS011;8057;47.830;-3.870;2022-08-07T18:38:04;4.70;;;1.80;;
15915;SDS011;8057;47.830;-3.870;2022-08-07T18:42:48;2.23;;;1.57;;
15915;SDS011;8057;47.830;-3.870;2022-08-07T18:47:09;2.70;;;2.00;;
15915;SDS011;8057;47.830;-3.870;2022-08-07T18:51:30;3.90;;;1.87;;
15915;SDS011;8057;47.830;-3.870;2022-08-07T18:56:11;2.33;;;2.10;;
15915;SDS011;8057;47.830;-3.870;2022-08-07T19:00:28;3.17;;;1.97;;
15915;SDS011;8057;47.830;-3.870;2022-08-07T19:04:51;3.53;;;2.17;;
15915;SDS011;8057;47.830;-3.870;2022-08-07T19:09:24;1.97;;;1.87;;
15915;SDS011;8057;47.830;-3.870;2022-08-07T19:13:59;3.20;;;2.03;;
15915;SDS011;8057;47.830;-3.870;2022-08-07T19:18:28;2.87;;;2.20;;
15915;SDS011;8057;47.830;-3.870;2022-08-07T19:22:55;2.10;;;1.90;;
15915;SDS011;8057;47.830;-3.870;2022-08-07T19:27:25;2.53;;;2.10;;
15915;SDS011;8057;47.830;-3.870;2022-08-07T19:32:01;2.67;;;1.97;;
15915;SDS011;8057;47.830;-3.870;2022-08-07T19:36:33;2.00;;;1.87;;
15915;SDS011;8057;47.830;-3.870;2022-08-07T19:40:57;2.03;;;1.90;;
15915;SDS011;8057;47.830;-3.870;2022-08-07T19:45:11;2.67;;;2.30;;
15915;SDS011;8057;47.830;-3.870;2022-08-07T19:49:42;4.10;;;2.20;;
15915;SDS011;8057;47.830;-3.870;2022-08-07T19:54:08;2.67;;;2.23;;
15915;SDS011;8057;47.830;-3.870;2022-08-07T19:58:38;3.00;;;2.00;;
15915;SDS011;8057;47.830;-3.870;2022-08-07T20:03:00;3.27;;;2.27;;
15915;SDS011;8057;47.830;-3.870;2022-08-07T20:07:34;2.80;;;2.27;;
15915;SDS011;8057;47.830;-3.870;2022-08-07T20:11:53;2.60;;;1.90;;
15915;SDS011;8057;47.830;-3.870;2022-08-07T20:16:24;2.40;;;2.20;;
15915;SDS011;8057;47.830;-3.870;2022-08-07T20:20:41;4.80;;;2.30;;
15915;SDS011;8057;47.830;-3.870;2022-08-07T20:24:53;2.53;;;2.23;;
15915;SDS011;8057;47.830;-3.870;2022-08-07T20:29:11;2.97;;;2.20;;
15915;SDS011;8057;47.830;-3.870;2022-08-07T20:33:44;2.10;;;1.90;;
15915;SDS011;8057;47.830;-3.870;2022-08-07T20:38:04;2.53;;;2.20;;
15915;SDS011;8057;47.830;-3.870;2022-08-07T20:42:16;2.70;;;2.03;;
15915;SDS011;8057;47.830;-3.870;2022-08-07T20:46:30;3.20;;;2.57;;
15915;SDS011;8057;47.830;-3.870;2022-08-07T20:50:51;2.97;;;2.20;;
15915;SDS011;8057;47.830;-3.870;2022-08-07T20:55:03;2.90;;;2.47;;
15915;SDS011;8057;47.830;-3.870;2022-08-07T20:59:14;4.33;;;2.40;;
15915;SDS011;8057;47.830;-3.870;2022-08-07T21:03:46;2.70;;;2.07;;
15915;SDS011;8057;47.830;-3.870;2022-08-07T21:08:20;2.47;;;2.07;;
15915;SDS011;8057;47.830;-3.870;2022-08-07T21:12:44;3.07;;;2.23;;
15915;SDS011;8057;47.830;-3.870;2022-08-07T21:16:57;3.17;;;2.50;;
15915;SDS011;8057;47.830;-3.870;2022-08-07T21:21:29;2.70;;;2.50;;
15915;SDS011;8057;47.830;-3.870;2022-08-07T21:26:02;2.73;;;2.30;;
15915;SDS011;8057;47.830;-3.870;2022-08-07T21:30:16;2.73;;;2.37;;
15915;SDS011;8057;47.830;-3.870;2022-08-07T21:34:31;5.97;;;2.80;;
15915;SDS011;8057;47.830;-3.870;2022-08-07T21:39:02;2.80;;;2.43;;
15915;SDS011;8057;47.830;-3.870;2022-08-07T21:43:41;3.53;;;2.63;;
15915;SDS011;8057;47.830;-3.870;2022-08-07T21:48:05;2.83;;;2.63;;
15915;SDS011;8057;47.830;-3.870;2022-08-07T21:52:41;3.03;;;2.43;;
15915;SDS011;8057;47.830;-3.870;2022-08-07T21:57:06;3.60;;;2.50;;
15915;SDS011;8057;47.830;-3.870;2022-08-07T22:01:42;2.73;;;2.50;;
15915;SDS011;8057;47.830;-3.870;2022-08-07T22:06:17;2.50;;;2.10;;
15915;SDS011;8057;47.830;-3.870;2022-08-07T22:10:37;2.87;;;2.30;;
15915;SDS011;8057;47.830;-3.870;2022-08-07T22:14:49;3.43;;;2.60;;
15915;SDS011;8057;47.830;-3.870;2022-08-07T22:19:06;4.63;;;2.80;;
15915;SDS011;8057;47.830;-3.870;2022-08-07T22:23:36;3.53;;;2.90;;
15915;SDS011;8057;47.830;-3.870;2022-08-07T22:27:54;2.87;;;2.50;;
15915;SDS011;8057;47.830;-3.870;2022-08-07T22:32:34;2.50;;;2.30;;
15915;SDS011;8057;47.830;-3.870;2022-08-07T22:36:52;2.70;;;2.50;;
15915;SDS011;8057;47.830;-3.870;2022-08-07T22:41:09;3.40;;;2.60;;
15915;SDS011;8057;47.830;-3.870;2022-08-07T22:45:28;3.20;;;2.67;;
15915;SDS011;8057;47.830;-3.870;2022-08-07T22:50:17;3.40;;;2.70;;
15915;SDS011;8057;47.830;-3.870;2022-08-07T22:54:43;3.70;;;2.40;;
15915;SDS011;8057;47.830;-3.870;2022-08-07T23:04:01;4.00;;;2.73;;
15915;SDS011;8057;47.830;-3.870;2022-08-07T23:08:26;3.47;;;2.50;;
15915;SDS011;8057;47.830;-3.870;2022-08-07T23:13:04;3.00;;;2.70;;
15915;SDS011;8057;47.830;-3.870;2022-08-07T23:17:47;2.73;;;2.53;;
15915;SDS011;8057;47.830;-3.870;2022-08-07T23:22:06;4.60;;;3.00;;
15915;SDS011;8057;47.830;-3.870;2022-08-07T23:26:33;5.33;;;2.67;;
15915;SDS011;8057;47.830;-3.870;2022-08-07T23:31:04;3.23;;;2.60;;
15915;SDS011;8057;47.830;-3.870;2022-08-07T23:35:43;3.17;;;2.60;;
15915;SDS011;8057;47.830;-3.870;2022-08-07T23:40:13;4.07;;;2.50;;
15915;SDS011;8057;47.830;-3.870;2022-08-07T23:45:01;3.40;;;2.17;;
15915;SDS011;8057;47.830;-3.870;2022-08-07T23:49:51;3.20;;;2.53;;
15915;SDS011;8057;47.830;-3.870;2022-08-07T23:54:26;2.30;;;2.10;;
15915;SDS011;8057;47.830;-3.870;2022-08-07T23:58:56;2.60;;;2.23;;
